sensor_id;sensor_type;location;lat;lon;timestamp;P1;durP1;ratioP1;P2;durP2;ratioP2
66707;SDS011;53622;0.000;0.000;2023-03-13T00:01:36;0.70;;;0.60;;
66707;SDS011;53622;0.000;0.000;2023-03-13T00:04:08;1.00;;;0.60;;
66707;SDS011;53622;0.000;0.000;2023-03-13T00:06:37;2.72;;;0.57;;
66707;SDS011;53622;0.000;0.000;2023-03-13T00:09:09;0.95;;;0.60;;
66707;SDS011;53622;0.000;0.000;2023-03-13T00:11:41;1.35;;;0.63;;
66707;SDS011;53622;0.000;0.000;2023-03-13T00:14:10;0.65;;;0.40;;
66707;SDS011;53622;0.000;0.000;2023-03-13T00:16:40;2.22;;;0.57;;
66707;SDS011;53622;0.000;0.000;2023-03-13T00:19:09;0.60;;;0.52;;
66707;SDS011;53622;0.000;0.000;2023-03-13T00:21:39;1.52;;;0.70;;
66707;SDS011;53622;0.000;0.000;2023-03-13T00:24:08;1.45;;;0.50;;
66707;SDS011;53622;0.000;0.000;2023-03-13T00:26:39;0.50;;;0.50;;
66707;SDS011;53622;0.000;0.000;2023-03-13T00:29:10;1.70;;;0.52;;
66707;SDS011;53622;0.000;0.000;2023-03-13T00:31:39;1.10;;;0.60;;
66707;SDS011;53622;0.000;0.000;2023-03-13T00:34:09;0.70;;;0.60;;
66707;SDS011;53622;0.000;0.000;2023-03-13T00:36:38;1.20;;;0.50;;
66707;SDS011;53622;0.000;0.000;2023-03-13T00:39:08;0.95;;;0.50;;
66707;SDS011;53622;0.000;0.000;2023-03-13T00:41:37;0.57;;;0.50;;
66707;SDS011;53622;0.000;0.000;2023-03-13T00:44:08;1.98;;;0.52;;
66707;SDS011;53622;0.000;0.000;2023-03-13T00:46:37;0.45;;;0.40;;
66707;SDS011;53622;0.000;0.000;2023-03-13T00:49:07;0.93;;;0.63;;
66707;SDS011;53622;0.000;0.000;2023-03-13T00:51:36;0.50;;;0.45;;
66707;SDS011;53622;0.000;0.000;2023-03-13T00:54:06;1.17;;;0.63;;
66707;SDS011;53622;0.000;0.000;2023-03-13T00:56:35;0.80;;;0.60;;
66707;SDS011;53622;0.000;0.000;2023-03-13T00:59:05;0.55;;;0.50;;
66707;SDS011;53622;0.000;0.000;2023-03-13T01:01:36;1.05;;;0.60;;
66707;SDS011;53622;0.000;0.000;2023-03-13T01:04:06;0.57;;;0.50;;
66707;SDS011;53622;0.000;0.000;2023-03-13T01:06:38;0.70;;;0.52;;
66707;SDS011;53622;0.000;0.000;2023-03-13T01:09:12;0.55;;;0.55;;
66707;SDS011;53622;0.000;0.000;2023-03-13T01:11:43;1.33;;;0.70;;
66707;SDS011;53622;0.000;0.000;2023-03-13T01:14:15;0.93;;;0.40;;
66707;SDS011;53622;0.000;0.000;2023-03-13T01:16:46;1.70;;;0.55;;
66707;SDS011;53622;0.000;0.000;2023-03-13T01:19:16;0.60;;;0.60;;
66707;SDS011;53622;0.000;0.000;2023-03-13T01:21:46;0.73;;;0.60;;
66707;SDS011;53622;0.000;0.000;2023-03-13T01:24:15;0.90;;;0.70;;
66707;SDS011;53622;0.000;0.000;2023-03-13T01:26:47;1.48;;;0.60;;
66707;SDS011;53622;0.000;0.000;2023-03-13T01:29:16;0.95;;;0.50;;
66707;SDS011;53622;0.000;0.000;2023-03-13T01:31:47;0.50;;;0.50;;
66707;SDS011;53622;0.000;0.000;2023-03-13T01:34:16;1.77;;;0.60;;
66707;SDS011;53622;0.000;0.000;2023-03-13T01:36:46;0.73;;;0.50;;
66707;SDS011;53622;0.000;0.000;2023-03-13T01:39:17;0.52;;;0.52;;
66707;SDS011;53622;0.000;0.000;2023-03-13T01:41:46;2.38;;;0.68;;
66707;SDS011;53622;0.000;0.000;2023-03-13T01:44:19;0.50;;;0.50;;
66707;SDS011;53622;0.000;0.000;2023-03-13T01:46:53;1.42;;;0.80;;
66707;SDS011;53622;0.000;0.000;2023-03-13T01:49:22;1.98;;;0.47;;
66707;SDS011;53622;0.000;0.000;2023-03-13T01:52:09;0.60;;;0.60;;
66707;SDS011;53622;0.000;0.000;2023-03-13T01:54:50;2.75;;;0.77;;
66707;SDS011;53622;0.000;0.000;2023-03-13T01:57:25;1.65;;;0.60;;
66707;SDS011;53622;0.000;0.000;2023-03-13T01:59:57;1.17;;;0.70;;
66707;SDS011;53622;0.000;0.000;2023-03-13T02:02:40;1.35;;;0.75;;
66707;SDS011;53622;0.000;0.000;2023-03-13T02:05:14;1.33;;;0.63;;
66707;SDS011;53622;0.000;0.000;2023-03-13T02:07:46;1.33;;;0.68;;
66707;SDS011;53622;0.000;0.000;2023-03-13T02:10:18;0.70;;;0.60;;
66707;SDS011;53622;0.000;0.000;2023-03-13T02:12:48;1.17;;;0.50;;
66707;SDS011;53622;0.000;0.000;2023-03-13T02:15:21;1.00;;;0.80;;
66707;SDS011;53622;0.000;0.000;2023-03-13T02:17:55;0.65;;;0.65;;
66707;SDS011;53622;0.000;0.000;2023-03-13T02:20:26;0.73;;;0.65;;
66707;SDS011;53622;0.000;0.000;2023-03-13T02:22:57;0.85;;;0.60;;
66707;SDS011;53622;0.000;0.000;2023-03-13T02:25:34;0.70;;;0.60;;
66707;SDS011;53622;0.000;0.000;2023-03-13T02:28:11;1.13;;;0.60;;
66707;SDS011;53622;0.000;0.000;2023-03-13T02:30:43;2.58;;;0.82;;
66707;SDS011;53622;0.000;0.000;2023-03-13T02:33:13;1.83;;;0.70;;
66707;SDS011;53622;0.000;0.000;2023-03-13T02:35:45;0.77;;;0.65;;
66707;SDS011;53622;0.000;0.000;2023-03-13T02:38:19;1.13;;;0.70;;
66707;SDS011;53622;0.000;0.000;2023-03-13T02:40:53;1.30;;;0.75;;
66707;SDS011;53622;0.000;0.000;2023-03-13T02:43:26;1.17;;;0.70;;
66707;SDS011;53622;0.000;0.000;2023-03-13T02:45:59;0.70;;;0.60;;
66707;SDS011;53622;0.000;0.000;2023-03-13T02:48:32;0.95;;;0.80;;
66707;SDS011;53622;0.000;0.000;2023-03-13T02:51:04;0.82;;;0.70;;
66707;SDS011;53622;0.000;0.000;2023-03-13T02:53:38;1.73;;;0.60;;
66707;SDS011;53622;0.000;0.000;2023-03-13T02:56:11;0.90;;;0.60;;
66707;SDS011;53622;0.000;0.000;2023-03-13T02:58:42;0.50;;;0.50;;
66707;SDS011;53622;0.000;0.000;2023-03-13T03:01:20;1.58;;;0.60;;
66707;SDS011;53622;0.000;0.000;2023-03-13T03:03:50;1.35;;;0.63;;
66707;SDS011;53622;0.000;0.000;2023-03-13T03:06:20;1.17;;;0.73;;
66707;SDS011;53622;0.000;0.000;2023-03-13T03:08:50;0.80;;;0.60;;
66707;SDS011;53622;0.000;0.000;2023-03-13T03:11:21;1.58;;;0.70;;
66707;SDS011;53622;0.000;0.000;2023-03-13T03:13:57;0.80;;;0.70;;
66707;SDS011;53622;0.000;0.000;2023-03-13T03:16:30;0.60;;;0.60;;
66707;SDS011;53622;0.000;0.000;2023-03-13T03:19:00;1.80;;;0.80;;
66707;SDS011;53622;0.000;0.000;2023-03-13T03:21:29;1.02;;;0.70;;
66707;SDS011;53622;0.000;0.000;2023-03-13T03:23:59;1.88;;;0.85;;
66707;SDS011;53622;0.000;0.000;2023-03-13T03:26:30;1.50;;;0.73;;
66707;SDS011;53622;0.000;0.000;2023-03-13T03:29:00;1.08;;;0.70;;
66707;SDS011;53622;0.000;0.000;2023-03-13T03:31:29;0.90;;;0.70;;
66707;SDS011;53622;0.000;0.000;2023-03-13T03:33:59;1.08;;;0.85;;
66707;SDS011;53622;0.000;0.000;2023-03-13T03:36:29;1.95;;;0.82;;
66707;SDS011;53622;0.000;0.000;2023-03-13T03:38:59;2.17;;;0.80;;
66707;SDS011;53622;0.000;0.000;2023-03-13T03:41:31;0.88;;;0.80;;
66707;SDS011;53622;0.000;0.000;2023-03-13T03:44:02;1.23;;;0.70;;
66707;SDS011;53622;0.000;0.000;2023-03-13T03:46:43;1.30;;;0.90;;
66707;SDS011;53622;0.000;0.000;2023-03-13T03:49:12;1.30;;;1.02;;
66707;SDS011;53622;0.000;0.000;2023-03-13T03:51:42;2.78;;;0.98;;
66707;SDS011;53622;0.000;0.000;2023-03-13T03:54:12;1.27;;;0.80;;
66707;SDS011;53622;0.000;0.000;2023-03-13T03:56:42;0.68;;;0.60;;
66707;SDS011;53622;0.000;0.000;2023-03-13T03:59:12;1.02;;;0.88;;
66707;SDS011;53622;0.000;0.000;2023-03-13T04:01:45;0.50;;;0.50;;
66707;SDS011;53622;0.000;0.000;2023-03-13T04:04:20;1.08;;;0.55;;
66707;SDS011;53622;0.000;0.000;2023-03-13T04:06:56;1.00;;;0.80;;
66707;SDS011;53622;0.000;0.000;2023-03-13T04:09:27;1.15;;;0.60;;
66707;SDS011;53622;0.000;0.000;2023-03-13T04:12:01;0.90;;;0.70;;
66707;SDS011;53622;0.000;0.000;2023-03-13T04:14:34;0.68;;;0.60;;
66707;SDS011;53622;0.000;0.000;2023-03-13T04:17:07;1.92;;;0.70;;
66707;SDS011;53622;0.000;0.000;2023-03-13T04:19:37;1.42;;;0.88;;
66707;SDS011;53622;0.000;0.000;2023-03-13T04:22:06;1.58;;;0.65;;
66707;SDS011;53622;0.000;0.000;2023-03-13T04:24:38;1.38;;;0.68;;
66707;SDS011;53622;0.000;0.000;2023-03-13T04:27:09;1.10;;;0.73;;
66707;SDS011;53622;0.000;0.000;2023-03-13T04:29:39;1.33;;;0.70;;
66707;SDS011;53622;0.000;0.000;2023-03-13T04:32:21;2.35;;;0.75;;
66707;SDS011;53622;0.000;0.000;2023-03-13T04:35:09;1.23;;;0.77;;
66707;SDS011;53622;0.000;0.000;2023-03-13T04:38:02;2.97;;;1.20;;
66707;SDS011;53622;0.000;0.000;2023-03-13T04:40:34;0.70;;;0.65;;
66707;SDS011;53622;0.000;0.000;2023-03-13T04:43:27;2.45;;;0.95;;
66707;SDS011;53622;0.000;0.000;2023-03-13T04:46:14;1.65;;;0.82;;
66707;SDS011;53622;0.000;0.000;2023-03-13T04:49:02;1.88;;;0.70;;
66707;SDS011;53622;0.000;0.000;2023-03-13T04:52:00;1.75;;;0.70;;
66707;SDS011;53622;0.000;0.000;2023-03-13T04:54:51;1.38;;;0.68;;
66707;SDS011;53622;0.000;0.000;2023-03-13T04:57:41;0.90;;;0.60;;
66707;SDS011;53622;0.000;0.000;2023-03-13T05:00:22;2.80;;;0.80;;
66707;SDS011;53622;0.000;0.000;2023-03-13T05:03:09;0.57;;;0.57;;
66707;SDS011;53622;0.000;0.000;2023-03-13T05:05:56;2.08;;;0.65;;
66707;SDS011;53622;0.000;0.000;2023-03-13T05:09:00;0.80;;;0.70;;
66707;SDS011;53622;0.000;0.000;2023-03-13T05:11:55;0.70;;;0.60;;
66707;SDS011;53622;0.000;0.000;2023-03-13T05:14:44;1.50;;;0.60;;
66707;SDS011;53622;0.000;0.000;2023-03-13T05:17:31;2.63;;;0.90;;
66707;SDS011;53622;0.000;0.000;2023-03-13T05:20:19;3.38;;;0.80;;
66707;SDS011;53622;0.000;0.000;2023-03-13T05:23:11;3.55;;;0.70;;
66707;SDS011;53622;0.000;0.000;2023-03-13T05:26:00;4.22;;;0.90;;
66707;SDS011;53622;0.000;0.000;2023-03-13T05:28:50;11.00;;;1.20;;
66707;SDS011;53622;0.000;0.000;2023-03-13T05:31:36;5.25;;;1.00;;
66707;SDS011;53622;0.000;0.000;2023-03-13T05:34:33;5.60;;;1.15;;
66707;SDS011;53622;0.000;0.000;2023-03-13T05:37:22;6.47;;;1.70;;
66707;SDS011;53622;0.000;0.000;2023-03-13T05:39:52;10.07;;;1.10;;
66707;SDS011;53622;0.000;0.000;2023-03-13T05:42:23;8.95;;;1.67;;
66707;SDS011;53622;0.000;0.000;2023-03-13T05:45:12;5.85;;;1.30;;
66707;SDS011;53622;0.000;0.000;2023-03-13T05:48:00;5.40;;;1.00;;
66707;SDS011;53622;0.000;0.000;2023-03-13T05:50:52;6.20;;;1.58;;
66707;SDS011;53622;0.000;0.000;2023-03-13T05:53:42;4.95;;;1.13;;
66707;SDS011;53622;0.000;0.000;2023-03-13T05:56:34;4.80;;;1.08;;
66707;SDS011;53622;0.000;0.000;2023-03-13T05:59:20;4.72;;;1.20;;
66707;SDS011;53622;0.000;0.000;2023-03-13T06:02:19;4.95;;;1.02;;
66707;SDS011;53622;0.000;0.000;2023-03-13T06:04:49;4.18;;;1.13;;
66707;SDS011;53622;0.000;0.000;2023-03-13T06:07:20;5.15;;;0.82;;
66707;SDS011;53622;0.000;0.000;2023-03-13T06:09:49;3.15;;;1.15;;
66707;SDS011;53622;0.000;0.000;2023-03-13T06:12:19;2.97;;;0.75;;
66707;SDS011;53622;0.000;0.000;2023-03-13T06:14:48;3.05;;;1.08;;
66707;SDS011;53622;0.000;0.000;2023-03-13T06:17:25;3.75;;;1.20;;
66707;SDS011;53622;0.000;0.000;2023-03-13T06:19:54;2.03;;;0.70;;
66707;SDS011;53622;0.000;0.000;2023-03-13T06:22:25;3.75;;;1.05;;
66707;SDS011;53622;0.000;0.000;2023-03-13T06:24:54;3.20;;;0.80;;
66707;SDS011;53622;0.000;0.000;2023-03-13T06:27:23;3.72;;;1.13;;
66707;SDS011;53622;0.000;0.000;2023-03-13T06:29:53;4.10;;;1.10;;
66707;SDS011;53622;0.000;0.000;2023-03-13T06:32:22;2.47;;;0.95;;
66707;SDS011;53622;0.000;0.000;2023-03-13T06:34:51;2.92;;;1.00;;
66707;SDS011;53622;0.000;0.000;2023-03-13T06:37:20;3.42;;;0.85;;
66707;SDS011;53622;0.000;0.000;2023-03-13T06:39:51;2.72;;;0.95;;
66707;SDS011;53622;0.000;0.000;2023-03-13T06:42:20;1.55;;;1.00;;
66707;SDS011;53622;0.000;0.000;2023-03-13T06:44:49;1.38;;;0.90;;
66707;SDS011;53622;0.000;0.000;2023-03-13T06:47:18;3.42;;;1.00;;
66707;SDS011;53622;0.000;0.000;2023-03-13T06:49:48;1.33;;;0.95;;
66707;SDS011;53622;0.000;0.000;2023-03-13T06:52:17;1.88;;;0.90;;
66707;SDS011;53622;0.000;0.000;2023-03-13T06:54:53;4.15;;;0.90;;
66707;SDS011;53622;0.000;0.000;2023-03-13T06:57:23;2.35;;;0.98;;
66707;SDS011;53622;0.000;0.000;2023-03-13T06:59:52;1.17;;;0.73;;
66707;SDS011;53622;0.000;0.000;2023-03-13T07:02:21;1.92;;;1.00;;
66707;SDS011;53622;0.000;0.000;2023-03-13T07:04:50;3.22;;;0.82;;
66707;SDS011;53622;0.000;0.000;2023-03-13T07:07:19;1.20;;;0.80;;
66707;SDS011;53622;0.000;0.000;2023-03-13T07:09:59;1.20;;;0.90;;
66707;SDS011;53622;0.000;0.000;2023-03-13T07:12:29;1.15;;;0.77;;
66707;SDS011;53622;0.000;0.000;2023-03-13T07:14:58;2.38;;;0.90;;
66707;SDS011;53622;0.000;0.000;2023-03-13T07:17:27;5.05;;;1.00;;
66707;SDS011;53622;0.000;0.000;2023-03-13T07:19:56;2.03;;;1.10;;
66707;SDS011;53622;0.000;0.000;2023-03-13T07:22:25;3.38;;;0.95;;
66707;SDS011;53622;0.000;0.000;2023-03-13T07:24:55;1.55;;;0.80;;
66707;SDS011;53622;0.000;0.000;2023-03-13T07:27:25;1.35;;;0.82;;
66707;SDS011;53622;0.000;0.000;2023-03-13T07:29:55;1.48;;;0.90;;
66707;SDS011;53622;0.000;0.000;2023-03-13T07:32:24;1.83;;;0.90;;
66707;SDS011;53622;0.000;0.000;2023-03-13T07:34:53;3.63;;;1.10;;
66707;SDS011;53622;0.000;0.000;2023-03-13T07:37:22;1.50;;;0.70;;
66707;SDS011;53622;0.000;0.000;2023-03-13T07:39:51;2.25;;;1.10;;
66707;SDS011;53622;0.000;0.000;2023-03-13T07:42:21;1.83;;;0.98;;
66707;SDS011;53622;0.000;0.000;2023-03-13T07:44:53;2.03;;;1.08;;
66707;SDS011;53622;0.000;0.000;2023-03-13T07:47:22;2.38;;;1.00;;
66707;SDS011;53622;0.000;0.000;2023-03-13T07:49:51;1.83;;;0.90;;
66707;SDS011;53622;0.000;0.000;2023-03-13T07:52:21;2.78;;;1.13;;
66707;SDS011;53622;0.000;0.000;2023-03-13T07:54:50;1.08;;;0.70;;
66707;SDS011;53622;0.000;0.000;2023-03-13T07:57:19;2.15;;;0.65;;
66707;SDS011;53622;0.000;0.000;2023-03-13T07:59:49;3.25;;;0.82;;
66707;SDS011;53622;0.000;0.000;2023-03-13T08:02:19;2.97;;;0.95;;
66707;SDS011;53622;0.000;0.000;2023-03-13T08:04:50;0.98;;;0.80;;
66707;SDS011;53622;0.000;0.000;2023-03-13T08:07:20;1.35;;;0.82;;
66707;SDS011;53622;0.000;0.000;2023-03-13T08:09:49;2.42;;;0.88;;
66707;SDS011;53622;0.000;0.000;2023-03-13T08:12:18;1.58;;;0.82;;
66707;SDS011;53622;0.000;0.000;2023-03-13T08:14:47;2.38;;;1.08;;
66707;SDS011;53622;0.000;0.000;2023-03-13T08:17:17;1.58;;;0.93;;
66707;SDS011;53622;0.000;0.000;2023-03-13T08:19:47;2.63;;;0.85;;
66707;SDS011;53622;0.000;0.000;2023-03-13T08:22:16;1.35;;;0.95;;
66707;SDS011;53622;0.000;0.000;2023-03-13T08:24:46;1.42;;;0.82;;
66707;SDS011;53622;0.000;0.000;2023-03-13T08:27:15;1.40;;;0.90;;
66707;SDS011;53622;0.000;0.000;2023-03-13T08:29:45;1.73;;;0.80;;
66707;SDS011;53622;0.000;0.000;2023-03-13T08:32:14;1.40;;;0.95;;
66707;SDS011;53622;0.000;0.000;2023-03-13T08:34:44;1.30;;;0.90;;
66707;SDS011;53622;0.000;0.000;2023-03-13T08:37:15;1.52;;;0.90;;
66707;SDS011;53622;0.000;0.000;2023-03-13T08:39:44;2.10;;;0.90;;
66707;SDS011;53622;0.000;0.000;2023-03-13T08:42:15;1.75;;;0.98;;
66707;SDS011;53622;0.000;0.000;2023-03-13T08:44:44;0.82;;;0.80;;
66707;SDS011;53622;0.000;0.000;2023-03-13T08:47:13;0.80;;;0.73;;
66707;SDS011;53622;0.000;0.000;2023-03-13T08:49:44;3.28;;;1.13;;
66707;SDS011;53622;0.000;0.000;2023-03-13T08:52:14;0.98;;;0.70;;
66707;SDS011;53622;0.000;0.000;2023-03-13T08:54:44;1.35;;;0.88;;
66707;SDS011;53622;0.000;0.000;2023-03-13T08:57:15;1.13;;;0.90;;
66707;SDS011;53622;0.000;0.000;2023-03-13T08:59:44;2.13;;;0.82;;
66707;SDS011;53622;0.000;0.000;2023-03-13T09:02:14;1.63;;;1.10;;
66707;SDS011;53622;0.000;0.000;2023-03-13T09:04:46;1.30;;;1.00;;
66707;SDS011;53622;0.000;0.000;2023-03-13T09:07:17;2.33;;;1.00;;
66707;SDS011;53622;0.000;0.000;2023-03-13T09:09:46;2.08;;;1.05;;
66707;SDS011;53622;0.000;0.000;2023-03-13T09:12:15;0.90;;;0.88;;
66707;SDS011;53622;0.000;0.000;2023-03-13T09:14:57;2.58;;;0.88;;
66707;SDS011;53622;0.000;0.000;2023-03-13T09:17:26;0.85;;;0.80;;
66707;SDS011;53622;0.000;0.000;2023-03-13T09:19:55;2.45;;;0.95;;
66707;SDS011;53622;0.000;0.000;2023-03-13T09:22:28;3.22;;;1.05;;
66707;SDS011;53622;0.000;0.000;2023-03-13T09:24:57;0.80;;;0.73;;
66707;SDS011;53622;0.000;0.000;2023-03-13T09:27:26;1.55;;;0.85;;
66707;SDS011;53622;0.000;0.000;2023-03-13T09:29:56;1.95;;;0.90;;
66707;SDS011;53622;0.000;0.000;2023-03-13T09:32:25;1.63;;;0.82;;
66707;SDS011;53622;0.000;0.000;2023-03-13T09:34:54;1.02;;;0.70;;
66707;SDS011;53622;0.000;0.000;2023-03-13T09:37:23;1.35;;;0.90;;
66707;SDS011;53622;0.000;0.000;2023-03-13T09:39:54;1.13;;;0.82;;
66707;SDS011;53622;0.000;0.000;2023-03-13T09:42:27;1.92;;;0.85;;
66707;SDS011;53622;0.000;0.000;2023-03-13T09:45:03;2.80;;;0.90;;
66707;SDS011;53622;0.000;0.000;2023-03-13T09:47:38;1.15;;;0.70;;
66707;SDS011;53622;0.000;0.000;2023-03-13T09:50:14;1.10;;;1.00;;
66707;SDS011;53622;0.000;0.000;2023-03-13T09:52:49;1.08;;;0.80;;
66707;SDS011;53622;0.000;0.000;2023-03-13T09:55:25;1.65;;;0.90;;
66707;SDS011;53622;0.000;0.000;2023-03-13T09:57:58;1.25;;;0.80;;
66707;SDS011;53622;0.000;0.000;2023-03-13T10:00:33;0.68;;;0.60;;
66707;SDS011;53622;0.000;0.000;2023-03-13T10:03:06;1.92;;;0.80;;
66707;SDS011;53622;0.000;0.000;2023-03-13T10:05:45;2.03;;;0.85;;
66707;SDS011;53622;0.000;0.000;2023-03-13T10:08:17;0.85;;;0.65;;
66707;SDS011;53622;0.000;0.000;2023-03-13T10:10:53;0.73;;;0.73;;
66707;SDS011;53622;0.000;0.000;2023-03-13T10:13:28;2.65;;;1.00;;
66707;SDS011;53622;0.000;0.000;2023-03-13T10:16:02;1.30;;;0.80;;
66707;SDS011;53622;0.000;0.000;2023-03-13T10:18:36;1.00;;;0.70;;
66707;SDS011;53622;0.000;0.000;2023-03-13T10:21:11;0.90;;;0.70;;
66707;SDS011;53622;0.000;0.000;2023-03-13T10:23:45;1.05;;;0.80;;
66707;SDS011;53622;0.000;0.000;2023-03-13T10:26:20;0.95;;;0.80;;
66707;SDS011;53622;0.000;0.000;2023-03-13T10:28:52;1.30;;;0.68;;
66707;SDS011;53622;0.000;0.000;2023-03-13T10:31:23;1.23;;;0.80;;
66707;SDS011;53622;0.000;0.000;2023-03-13T10:34:04;1.15;;;0.80;;
66707;SDS011;53622;0.000;0.000;2023-03-13T10:36:38;0.95;;;0.80;;
66707;SDS011;53622;0.000;0.000;2023-03-13T10:39:11;1.10;;;0.60;;
66707;SDS011;53622;0.000;0.000;2023-03-13T10:41:45;0.80;;;0.70;;
66707;SDS011;53622;0.000;0.000;2023-03-13T10:44:17;0.82;;;0.77;;
66707;SDS011;53622;0.000;0.000;2023-03-13T10:46:48;0.90;;;0.63;;
66707;SDS011;53622;0.000;0.000;2023-03-13T10:49:18;1.15;;;0.80;;
66707;SDS011;53622;0.000;0.000;2023-03-13T10:51:50;1.23;;;0.55;;
66707;SDS011;53622;0.000;0.000;2023-03-13T10:54:21;1.17;;;0.80;;
66707;SDS011;53622;0.000;0.000;2023-03-13T10:57:08;1.27;;;0.65;;
66707;SDS011;53622;0.000;0.000;2023-03-13T10:59:48;0.73;;;0.63;;
66707;SDS011;53622;0.000;0.000;2023-03-13T11:02:20;1.20;;;0.68;;
66707;SDS011;53622;0.000;0.000;2023-03-13T11:04:51;0.90;;;0.60;;
66707;SDS011;53622;0.000;0.000;2023-03-13T11:07:24;0.85;;;0.73;;
66707;SDS011;53622;0.000;0.000;2023-03-13T11:10:00;0.75;;;0.68;;
66707;SDS011;53622;0.000;0.000;2023-03-13T11:12:33;0.63;;;0.50;;
66707;SDS011;53622;0.000;0.000;2023-03-13T11:15:05;1.70;;;0.70;;
66707;SDS011;53622;0.000;0.000;2023-03-13T11:17:43;0.60;;;0.57;;
66707;SDS011;53622;0.000;0.000;2023-03-13T11:20:26;0.88;;;0.60;;
66707;SDS011;53622;0.000;0.000;2023-03-13T11:23:07;0.93;;;0.80;;
66707;SDS011;53622;0.000;0.000;2023-03-13T11:25:45;0.70;;;0.68;;
66707;SDS011;53622;0.000;0.000;2023-03-13T11:28:29;0.75;;;0.70;;
66707;SDS011;53622;0.000;0.000;2023-03-13T11:31:12;0.57;;;0.57;;
66707;SDS011;53622;0.000;0.000;2023-03-13T11:33:47;0.70;;;0.50;;
66707;SDS011;53622;0.000;0.000;2023-03-13T11:36:25;0.70;;;0.70;;
66707;SDS011;53622;0.000;0.000;2023-03-13T11:39:02;0.90;;;0.70;;
66707;SDS011;53622;0.000;0.000;2023-03-13T11:41:47;0.77;;;0.70;;
66707;SDS011;53622;0.000;0.000;2023-03-13T11:44:30;0.60;;;0.50;;
66707;SDS011;53622;0.000;0.000;2023-03-13T11:47:16;0.65;;;0.60;;
66707;SDS011;53622;0.000;0.000;2023-03-13T11:52:57;0.93;;;0.60;;
66707;SDS011;53622;0.000;0.000;2023-03-13T11:55:45;0.80;;;0.65;;
66707;SDS011;53622;0.000;0.000;2023-03-13T11:58:25;1.30;;;0.70;;
66707;SDS011;53622;0.000;0.000;2023-03-13T12:01:31;0.93;;;0.60;;
66707;SDS011;53622;0.000;0.000;2023-03-13T12:04:04;0.60;;;0.57;;
66707;SDS011;53622;0.000;0.000;2023-03-13T12:06:44;0.60;;;0.60;;
66707;SDS011;53622;0.000;0.000;2023-03-13T12:09:19;0.70;;;0.60;;
66707;SDS011;53622;0.000;0.000;2023-03-13T12:11:56;0.47;;;0.40;;
66707;SDS011;53622;0.000;0.000;2023-03-13T12:14:30;0.90;;;0.50;;
66707;SDS011;53622;0.000;0.000;2023-03-13T12:17:05;0.73;;;0.57;;
66707;SDS011;53622;0.000;0.000;2023-03-13T12:19:40;0.60;;;0.50;;
66707;SDS011;53622;0.000;0.000;2023-03-13T12:22:17;0.73;;;0.60;;
66707;SDS011;53622;0.000;0.000;2023-03-13T12:24:51;0.40;;;0.40;;
66707;SDS011;53622;0.000;0.000;2023-03-13T12:27:26;0.60;;;0.60;;
66707;SDS011;53622;0.000;0.000;2023-03-13T12:30:00;1.38;;;0.57;;
66707;SDS011;53622;0.000;0.000;2023-03-13T12:32:36;1.00;;;0.55;;
66707;SDS011;53622;0.000;0.000;2023-03-13T12:35:14;0.55;;;0.50;;
66707;SDS011;53622;0.000;0.000;2023-03-13T12:37:49;0.60;;;0.60;;
66707;SDS011;53622;0.000;0.000;2023-03-13T12:40:25;0.43;;;0.43;;
66707;SDS011;53622;0.000;0.000;2023-03-13T12:43:01;0.63;;;0.57;;
66707;SDS011;53622;0.000;0.000;2023-03-13T12:45:32;0.60;;;0.60;;
66707;SDS011;53622;0.000;0.000;2023-03-13T12:48:19;1.38;;;0.47;;
66707;SDS011;53622;0.000;0.000;2023-03-13T12:51:08;0.40;;;0.40;;
66707;SDS011;53622;0.000;0.000;2023-03-13T12:54:07;0.50;;;0.50;;
66707;SDS011;53622;0.000;0.000;2023-03-13T12:56:49;0.57;;;0.57;;
66707;SDS011;53622;0.000;0.000;2023-03-13T12:59:31;0.35;;;0.28;;
66707;SDS011;53622;0.000;0.000;2023-03-13T13:02:07;1.25;;;0.50;;
66707;SDS011;53622;0.000;0.000;2023-03-13T13:04:44;0.77;;;0.47;;
66707;SDS011;53622;0.000;0.000;2023-03-13T13:07:20;0.63;;;0.60;;
66707;SDS011;53622;0.000;0.000;2023-03-13T13:12:45;0.50;;;0.50;;
66707;SDS011;53622;0.000;0.000;2023-03-13T13:15:19;0.50;;;0.50;;
66707;SDS011;53622;0.000;0.000;2023-03-13T13:17:57;0.40;;;0.40;;
66707;SDS011;53622;0.000;0.000;2023-03-13T13:20:39;0.50;;;0.50;;
66707;SDS011;53622;0.000;0.000;2023-03-13T13:23:19;0.50;;;0.50;;
66707;SDS011;53622;0.000;0.000;2023-03-13T13:32:37;0.50;;;0.50;;
66707;SDS011;53622;0.000;0.000;2023-03-13T13:38:27;0.40;;;0.35;;
66707;SDS011;53622;0.000;0.000;2023-03-13T13:44:19;0.45;;;0.40;;
66707;SDS011;53622;0.000;0.000;2023-03-13T13:46:50;0.98;;;0.60;;
66707;SDS011;53622;0.000;0.000;2023-03-13T13:49:21;0.73;;;0.50;;
66707;SDS011;53622;0.000;0.000;2023-03-13T13:54:54;0.50;;;0.40;;
66707;SDS011;53622;0.000;0.000;2023-03-13T13:57:25;0.52;;;0.50;;
66707;SDS011;53622;0.000;0.000;2023-03-13T13:59:58;0.68;;;0.40;;
66707;SDS011;53622;0.000;0.000;2023-03-13T14:02:36;0.68;;;0.47;;
66707;SDS011;53622;0.000;0.000;2023-03-13T14:05:16;0.60;;;0.50;;
66707;SDS011;53622;0.000;0.000;2023-03-13T14:07:50;0.70;;;0.50;;
66707;SDS011;53622;0.000;0.000;2023-03-13T14:10:28;0.45;;;0.45;;
66707;SDS011;53622;0.000;0.000;2023-03-13T14:13:02;0.65;;;0.60;;
66707;SDS011;53622;0.000;0.000;2023-03-13T14:15:42;0.50;;;0.32;;
66707;SDS011;53622;0.000;0.000;2023-03-13T14:18:15;0.63;;;0.40;;
66707;SDS011;53622;0.000;0.000;2023-03-13T14:20:53;0.50;;;0.50;;
66707;SDS011;53622;0.000;0.000;2023-03-13T14:23:28;0.30;;;0.30;;
66707;SDS011;53622;0.000;0.000;2023-03-13T14:26:09;0.40;;;0.40;;
66707;SDS011;53622;0.000;0.000;2023-03-13T14:28:41;0.55;;;0.47;;
66707;SDS011;53622;0.000;0.000;2023-03-13T14:31:22;0.57;;;0.40;;
66707;SDS011;53622;0.000;0.000;2023-03-13T14:33:54;0.50;;;0.50;;
66707;SDS011;53622;0.000;0.000;2023-03-13T14:36:24;0.40;;;0.40;;
66707;SDS011;53622;0.000;0.000;2023-03-13T14:38:55;0.40;;;0.40;;
66707;SDS011;53622;0.000;0.000;2023-03-13T14:41:28;1.02;;;0.50;;
66707;SDS011;53622;0.000;0.000;2023-03-13T14:44:00;0.50;;;0.50;;
66707;SDS011;53622;0.000;0.000;2023-03-13T14:46:33;0.40;;;0.40;;
66707;SDS011;53622;0.000;0.000;2023-03-13T14:49:04;0.98;;;0.50;;
66707;SDS011;53622;0.000;0.000;2023-03-13T14:51:37;0.90;;;0.35;;
66707;SDS011;53622;0.000;0.000;2023-03-13T14:54:22;0.55;;;0.40;;
66707;SDS011;53622;0.000;0.000;2023-03-13T14:59:53;0.88;;;0.50;;
66707;SDS011;53622;0.000;0.000;2023-03-13T15:02:25;1.85;;;0.50;;
66707;SDS011;53622;0.000;0.000;2023-03-13T15:04:57;0.55;;;0.47;;
66707;SDS011;53622;0.000;0.000;2023-03-13T15:07:35;0.47;;;0.40;;
66707;SDS011;53622;0.000;0.000;2023-03-13T15:10:19;0.40;;;0.40;;
66707;SDS011;53622;0.000;0.000;2023-03-13T15:12:51;0.28;;;0.28;;
66707;SDS011;53622;0.000;0.000;2023-03-13T15:15:21;0.43;;;0.43;;
66707;SDS011;53622;0.000;0.000;2023-03-13T15:17:50;0.60;;;0.50;;
66707;SDS011;53622;0.000;0.000;2023-03-13T15:20:20;0.43;;;0.38;;
66707;SDS011;53622;0.000;0.000;2023-03-13T15:22:50;0.93;;;0.57;;
66707;SDS011;53622;0.000;0.000;2023-03-13T15:25:20;0.52;;;0.50;;
66707;SDS011;53622;0.000;0.000;2023-03-13T15:27:52;1.08;;;0.50;;
66707;SDS011;53622;0.000;0.000;2023-03-13T15:30:21;0.50;;;0.50;;
66707;SDS011;53622;0.000;0.000;2023-03-13T15:32:50;0.73;;;0.47;;
66707;SDS011;53622;0.000;0.000;2023-03-13T15:35:21;0.57;;;0.50;;
66707;SDS011;53622;0.000;0.000;2023-03-13T15:37:54;0.50;;;0.50;;
66707;SDS011;53622;0.000;0.000;2023-03-13T15:40:26;0.43;;;0.40;;
66707;SDS011;53622;0.000;0.000;2023-03-13T15:42:58;0.50;;;0.38;;
66707;SDS011;53622;0.000;0.000;2023-03-13T15:45:28;0.35;;;0.32;;
66707;SDS011;53622;0.000;0.000;2023-03-13T15:47:57;0.40;;;0.40;;
66707;SDS011;53622;0.000;0.000;2023-03-13T15:50:27;0.93;;;0.30;;
66707;SDS011;53622;0.000;0.000;2023-03-13T15:52:57;0.30;;;0.30;;
66707;SDS011;53622;0.000;0.000;2023-03-13T15:55:28;0.80;;;0.43;;
66707;SDS011;53622;0.000;0.000;2023-03-13T15:57:59;0.60;;;0.50;;
66707;SDS011;53622;0.000;0.000;2023-03-13T16:00:28;0.50;;;0.40;;
66707;SDS011;53622;0.000;0.000;2023-03-13T16:02:58;0.57;;;0.45;;
66707;SDS011;53622;0.000;0.000;2023-03-13T16:05:27;0.40;;;0.40;;
66707;SDS011;53622;0.000;0.000;2023-03-13T16:07:57;0.32;;;0.32;;